createdAt,value
2023-02-21T00:00:57.251Z,96.58
2023-02-21T00:01:57.257Z,96.58
2023-02-21T00:02:57.240Z,96.58
2023-02-21T00:03:57.221Z,96.58
2023-02-21T00:04:57.213Z,96.58
2023-02-21T00:05:57.208Z,96.68
2023-02-21T00:06:57.206Z,96.68
2023-02-21T00:07:57.162Z,96.68
2023-02-21T00:08:57.161Z,96.68
2023-02-21T00:09:57.149Z,96.68
2023-02-21T00:10:57.164Z,96.58
2023-02-21T00:11:57.092Z,96.58
2023-02-21T00:12:57.078Z,96.58
2023-02-21T00:13:57.088Z,96.58
2023-02-21T00:14:57.081Z,96.58
2023-02-21T00:15:57.052Z,96.58
2023-02-21T00:16:57.034Z,96.58
2023-02-21T00:17:57.012Z,96.58
2023-02-21T00:18:57.003Z,96.68
2023-02-21T00:19:57.012Z,96.68
2023-02-21T00:20:57.008Z,96.58
2023-02-21T00:21:56.980Z,96.58
2023-02-21T00:22:56.980Z,96.58
2023-02-21T00:23:56.958Z,96.58
2023-02-21T00:24:57.001Z,96.47
2023-02-21T00:25:56.901Z,96.47
2023-02-21T00:26:56.931Z,96.47
2023-02-21T00:27:56.916Z,96.47
2023-02-21T00:28:56.872Z,96.47
2023-02-21T00:29:56.871Z,96.47
2023-02-21T00:30:56.945Z,96.47
2023-02-21T00:32:04.439Z,96.58
2023-02-21T00:32:57.710Z,96.58
2023-02-21T00:33:56.824Z,96.58
2023-02-21T00:34:58.577Z,96.68
2023-02-21T00:35:56.760Z,96.68
2023-02-21T00:36:56.761Z,96.68
2023-02-21T00:37:56.744Z,96.68
2023-02-21T00:38:56.786Z,96.78
2023-02-21T00:39:56.711Z,96.78
2023-02-21T00:40:56.722Z,96.89
2023-02-21T00:41:56.716Z,96.89
2023-02-21T00:42:56.716Z,96.89
2023-02-21T00:43:56.708Z,96.99
2023-02-21T00:44:56.696Z,97.09
2023-02-21T00:45:56.700Z,97.09
2023-02-21T00:46:56.678Z,97.19
2023-02-21T00:47:56.650Z,97.19
2023-02-21T00:48:56.607Z,97.19
2023-02-21T00:49:56.596Z,97.30
2023-02-21T00:50:56.576Z,97.30
2023-02-21T00:51:56.554Z,97.40
2023-02-21T00:52:56.559Z,97.40
2023-02-21T00:53:56.552Z,97.40
2023-02-21T00:54:56.595Z,97.40
2023-02-21T00:55:56.550Z,97.40
2023-02-21T00:56:56.532Z,97.50
2023-02-21T00:57:56.474Z,97.50
2023-02-21T00:58:56.500Z,97.50
2023-02-21T00:59:56.463Z,97.50
2023-02-21T01:00:56.488Z,97.50
2023-02-21T01:01:56.426Z,97.50
2023-02-21T01:02:56.461Z,97.61
2023-02-21T01:03:56.435Z,97.61
2023-02-21T01:04:56.397Z,97.61
2023-02-21T01:05:56.378Z,97.61
2023-02-21T01:06:56.427Z,97.61
2023-02-21T01:07:56.350Z,97.61
2023-02-21T01:08:56.358Z,97.61
2023-02-21T01:09:56.325Z,97.71
2023-02-21T01:10:56.363Z,97.71
2023-02-21T01:11:56.368Z,97.71
2023-02-21T01:12:56.325Z,97.71
2023-02-21T01:13:56.285Z,97.71
2023-02-21T01:14:56.281Z,97.71
2023-02-21T01:15:56.381Z,97.71
2023-02-21T01:16:59.412Z,97.71
2023-02-21T01:17:57.239Z,97.71
2023-02-21T01:18:56.267Z,97.71
2023-02-21T01:19:56.212Z,97.71
2023-02-21T01:20:56.200Z,97.71
2023-02-21T01:21:56.199Z,97.71
2023-02-21T01:22:56.224Z,97.71
2023-02-21T01:23:56.183Z,97.71
2023-02-21T01:24:56.152Z,97.71
2023-02-21T01:25:56.129Z,97.71
2023-02-21T01:26:56.153Z,97.71
2023-02-21T01:27:56.128Z,97.71
2023-02-21T01:28:56.114Z,97.71
2023-02-21T01:29:56.087Z,97.71
2023-02-21T01:30:56.108Z,97.71
2023-02-21T01:31:56.074Z,97.71
2023-02-21T01:32:56.050Z,97.71
2023-02-21T01:33:56.066Z,97.61
2023-02-21T01:34:56.045Z,97.61
2023-02-21T01:35:56.016Z,97.61
2023-02-21T01:36:56.016Z,97.61
2023-02-21T01:37:55.994Z,97.61
2023-02-21T01:38:55.990Z,97.61
2023-02-21T01:39:55.946Z,97.61
2023-02-21T01:40:55.940Z,97.71
2023-02-21T01:41:55.919Z,97.71
2023-02-21T01:42:55.905Z,97.71
2023-02-21T01:43:55.914Z,97.71
2023-02-21T01:44:55.935Z,97.81
2023-02-21T01:45:55.898Z,97.71
2023-02-21T01:46:55.903Z,97.81
2023-02-21T01:47:55.838Z,97.81
2023-02-21T01:48:55.851Z,97.81
2023-02-21T01:49:55.803Z,97.81
2023-02-21T01:50:55.822Z,97.81
2023-02-21T01:51:55.805Z,97.91
2023-02-21T01:52:55.763Z,97.91
2023-02-21T01:53:55.808Z,97.91
2023-02-21T01:54:55.785Z,97.91
2023-02-21T01:55:55.768Z,97.91
2023-02-21T01:56:55.740Z,97.91
2023-02-21T01:57:55.737Z,97.91
2023-02-21T01:58:55.708Z,98.02
2023-02-21T01:59:55.712Z,98.02
2023-02-21T02:00:55.680Z,98.02
2023-02-21T02:01:55.659Z,98.02
2023-02-21T02:02:55.675Z,98.02
2023-02-21T02:03:55.640Z,98.02
2023-02-21T02:04:55.649Z,98.02
2023-02-21T02:05:55.637Z,98.02
2023-02-21T02:06:55.607Z,98.02
2023-02-21T02:07:55.654Z,98.02
2023-02-21T02:08:55.549Z,98.02
2023-02-21T02:09:55.583Z,98.02
2023-02-21T02:10:55.542Z,98.12
2023-02-21T02:11:55.555Z,98.12
2023-02-21T02:12:55.498Z,98.12
2023-02-21T02:13:55.555Z,98.22
2023-02-21T02:14:55.505Z,98.22
2023-02-21T02:15:55.502Z,98.22
2023-02-21T02:16:55.480Z,98.33
2023-02-21T02:17:55.491Z,98.33
2023-02-21T02:18:55.426Z,98.33
2023-02-21T02:19:55.468Z,98.33
2023-02-21T02:20:55.397Z,98.33
2023-02-21T02:21:55.440Z,98.33
2023-02-21T02:22:55.394Z,98.33
2023-02-21T02:23:55.376Z,98.33
2023-02-21T02:24:55.378Z,98.33
2023-02-21T02:25:55.385Z,98.33
2023-02-21T02:26:55.316Z,98.33
2023-02-21T02:27:55.324Z,98.33
2023-02-21T02:28:55.325Z,98.33
2023-02-21T02:29:55.330Z,98.33
2023-02-21T02:30:55.327Z,98.22
2023-02-21T02:31:55.419Z,98.33
2023-02-21T02:32:55.276Z,98.33
2023-02-21T02:33:55.273Z,98.33
2023-02-21T02:34:55.219Z,98.33
2023-02-21T02:35:55.244Z,98.33
2023-02-21T02:36:55.200Z,98.33
2023-02-21T02:37:55.205Z,98.33
2023-02-21T02:38:55.165Z,98.33
2023-02-21T02:39:55.165Z,98.33
2023-02-21T02:40:55.174Z,98.33
2023-02-21T02:41:55.181Z,98.33
2023-02-21T02:42:55.114Z,98.33
2023-02-21T02:43:55.149Z,98.33
2023-02-21T02:44:55.092Z,98.33
2023-02-21T02:45:55.108Z,98.22
2023-02-21T02:46:55.064Z,98.33
2023-02-21T02:47:55.060Z,98.33
2023-02-21T02:48:55.047Z,98.33
2023-02-21T02:49:55.032Z,98.22
2023-02-21T02:50:55.025Z,98.33
2023-02-21T02:51:55.017Z,98.22
2023-02-21T02:52:55.030Z,98.33
2023-02-21T02:53:54.988Z,98.33
2023-02-21T02:54:54.949Z,98.33
2023-02-21T02:55:54.996Z,98.33
2023-02-21T02:56:54.969Z,98.33
2023-02-21T02:57:54.957Z,98.33
2023-02-21T02:58:54.898Z,98.33
2023-02-21T02:59:54.897Z,98.33
2023-02-21T03:00:54.906Z,98.33
2023-02-21T03:01:54.942Z,98.33
2023-02-21T03:02:54.874Z,98.33
2023-02-21T03:03:54.947Z,98.33
2023-02-21T03:04:54.860Z,98.22
2023-02-21T03:05:54.861Z,98.33
2023-02-21T03:06:54.834Z,98.22
2023-02-21T03:07:54.795Z,98.22
2023-02-21T03:08:54.804Z,98.22
2023-02-21T03:09:54.779Z,98.22
2023-02-21T03:10:54.772Z,98.22
2023-02-21T03:11:54.789Z,98.22
2023-02-21T03:12:54.741Z,98.22
2023-02-21T03:13:54.723Z,98.22
2023-02-21T03:14:54.722Z,98.22
2023-02-21T03:15:54.766Z,98.22
2023-02-21T03:16:54.676Z,98.22
2023-02-21T03:17:54.679Z,98.22
2023-02-21T03:18:54.639Z,98.22
2023-02-21T03:19:54.643Z,98.12
2023-02-21T03:20:54.638Z,98.12
2023-02-21T03:21:54.632Z,98.12
2023-02-21T03:22:54.616Z,98.22
2023-02-21T03:23:54.633Z,98.12
2023-02-21T03:24:54.570Z,98.12
2023-02-21T03:25:54.565Z,98.12
2023-02-21T03:26:54.583Z,98.12
2023-02-21T03:27:54.578Z,98.12
2023-02-21T03:28:54.537Z,98.12
2023-02-21T03:29:54.536Z,98.12
2023-02-21T03:30:54.532Z,98.12
2023-02-21T03:31:54.608Z,98.02
2023-02-21T03:32:54.473Z,98.02
2023-02-21T03:33:54.487Z,98.02
2023-02-21T03:34:54.478Z,98.02
2023-02-21T03:35:54.465Z,98.02
2023-02-21T03:36:54.428Z,98.02
2023-02-21T03:37:54.436Z,97.91
2023-02-21T03:38:54.380Z,97.91
2023-02-21T03:39:54.412Z,97.91
2023-02-21T03:40:54.385Z,97.91
2023-02-21T03:41:54.382Z,97.91
2023-02-21T03:42:54.357Z,97.91
2023-02-21T03:43:54.376Z,98.02
2023-02-21T03:44:54.358Z,97.91
2023-02-21T03:45:54.333Z,97.91
2023-02-21T03:46:54.318Z,97.91
2023-02-21T03:47:54.312Z,97.91
2023-02-21T03:48:54.249Z,97.91
2023-02-21T03:49:54.257Z,97.91
2023-02-21T03:50:54.231Z,97.91
2023-02-21T03:51:54.228Z,97.91
2023-02-21T03:52:54.218Z,97.91
2023-02-21T03:53:54.233Z,97.91
2023-02-21T03:54:54.167Z,97.91
2023-02-21T03:55:54.221Z,97.91
2023-02-21T03:56:54.193Z,97.81
2023-02-21T03:57:54.139Z,97.81
2023-02-21T03:58:54.165Z,97.81
2023-02-21T03:59:54.135Z,97.81
2023-02-21T04:00:54.158Z,97.81
2023-02-21T04:01:54.112Z,97.71
2023-02-21T04:02:54.069Z,97.81
2023-02-21T04:03:54.080Z,97.81
2023-02-21T04:04:54.097Z,97.71
2023-02-21T04:05:54.029Z,97.81
2023-02-21T04:06:54.052Z,97.81
2023-02-21T04:07:54.022Z,97.81
2023-02-21T04:08:53.998Z,97.71
2023-02-21T04:09:53.994Z,97.71
2023-02-21T04:10:54.005Z,97.71
2023-02-21T04:11:53.969Z,97.71
2023-02-21T04:12:53.939Z,97.71
2023-02-21T04:13:53.950Z,97.71
2023-02-21T04:14:53.936Z,97.71
2023-02-21T04:15:53.963Z,97.81
2023-02-21T04:16:53.899Z,97.81
2023-02-21T04:17:53.914Z,97.81
2023-02-21T04:18:53.885Z,97.81
2023-02-21T04:19:53.899Z,97.81
2023-02-21T04:20:53.880Z,97.81
2023-02-21T04:21:53.883Z,97.81
2023-02-21T04:23:02.711Z,97.81
2023-02-21T04:23:54.816Z,97.91
2023-02-21T04:24:53.792Z,97.91
2023-02-21T04:25:53.798Z,97.91
2023-02-21T04:26:53.784Z,97.91
2023-02-21T04:27:53.764Z,97.91
2023-02-21T04:28:53.763Z,97.91
2023-02-21T04:29:53.771Z,97.91
2023-02-21T04:30:53.748Z,97.91
2023-02-21T04:31:53.859Z,98.02
2023-02-21T04:32:53.697Z,98.02
2023-02-21T04:34:05.841Z,98.02
2023-02-21T04:34:54.665Z,98.02
2023-02-21T04:35:53.686Z,98.12
2023-02-21T04:36:53.638Z,98.12
2023-02-21T04:37:53.659Z,98.12
2023-02-21T04:38:53.605Z,98.12
2023-02-21T04:39:53.604Z,98.12
2023-02-21T04:40:53.600Z,98.12
2023-02-21T04:41:53.611Z,98.12
2023-02-21T04:42:53.553Z,98.12
2023-02-21T04:43:53.570Z,98.12
2023-02-21T04:45:00.090Z,98.12
2023-02-21T04:45:54.601Z,98.12
2023-02-21T04:46:53.530Z,98.12
2023-02-21T04:47:53.495Z,98.02
2023-02-21T04:48:53.494Z,98.02
2023-02-21T04:49:53.509Z,97.91
2023-02-21T04:50:55.885Z,97.91
2023-02-21T04:51:53.489Z,97.91
2023-02-21T04:52:53.434Z,97.91
2023-02-21T04:53:53.452Z,97.91
2023-02-21T04:54:53.478Z,97.91
2023-02-21T04:55:53.421Z,98.02
2023-02-21T04:56:53.459Z,98.02
2023-02-21T04:57:53.373Z,98.02
2023-02-21T04:58:53.360Z,98.02
2023-02-21T04:59:53.389Z,98.02
2023-02-21T05:00:53.391Z,98.02
2023-02-21T05:01:53.348Z,98.02
2023-02-21T05:02:53.312Z,98.02
2023-02-21T05:03:53.376Z,98.02
2023-02-21T05:04:53.399Z,98.02
2023-02-21T05:05:53.287Z,97.91
2023-02-21T05:06:53.240Z,97.91
2023-02-21T05:07:53.267Z,97.91
2023-02-21T05:08:53.236Z,97.91
2023-02-21T05:09:53.246Z,97.91
2023-02-21T05:10:53.228Z,97.91
2023-02-21T05:11:53.239Z,98.02
2023-02-21T05:12:53.160Z,98.02
2023-02-21T05:13:53.162Z,98.02
2023-02-21T05:14:53.157Z,98.02
2023-02-21T05:15:53.180Z,98.02
2023-02-21T05:16:53.205Z,98.02
2023-02-21T05:17:53.107Z,98.12
2023-02-21T05:18:53.084Z,98.12
2023-02-21T05:19:53.087Z,98.12
2023-02-21T05:20:53.084Z,98.12
2023-02-21T05:21:53.087Z,98.12
2023-02-21T05:22:55.873Z,98.12
2023-02-21T05:23:53.034Z,98.12
2023-02-21T05:24:53.003Z,98.12
2023-02-21T05:25:53.041Z,98.12
2023-02-21T05:26:53.042Z,98.12
2023-02-21T05:27:53.014Z,98.12
2023-02-21T05:28:52.982Z,98.12
2023-02-21T05:29:52.965Z,98.12
2023-02-21T05:30:53.046Z,98.12
2023-02-21T05:31:52.943Z,98.12
2023-02-21T05:32:52.925Z,98.22
2023-02-21T05:33:52.912Z,98.22
2023-02-21T05:34:52.938Z,98.22
2023-02-21T05:35:52.874Z,98.22
2023-02-21T05:36:52.878Z,98.22
2023-02-21T05:37:52.892Z,98.22
2023-02-21T05:38:52.879Z,98.22
2023-02-21T05:39:52.855Z,98.22
2023-02-21T05:40:52.824Z,98.12
2023-02-21T05:41:52.844Z,98.12
2023-02-21T05:42:52.800Z,98.12
2023-02-21T05:43:52.821Z,98.12
2023-02-21T05:44:52.778Z,98.12
2023-02-21T05:45:52.773Z,98.12
2023-02-21T05:46:52.744Z,98.12
2023-02-21T05:47:52.727Z,98.02
2023-02-21T05:48:52.743Z,98.02
2023-02-21T05:49:52.762Z,98.02
2023-02-21T05:50:52.688Z,98.02
2023-02-21T05:51:52.683Z,98.02
2023-02-21T05:52:52.642Z,98.02
2023-02-21T05:53:52.669Z,98.02
2023-02-21T05:54:52.630Z,98.12
2023-02-21T05:55:52.612Z,98.12
2023-02-21T05:56:52.588Z,98.22
2023-02-21T05:57:52.590Z,98.22
2023-02-21T05:58:52.588Z,98.22
2023-02-21T05:59:52.589Z,98.37
2023-02-21T06:00:52.564Z,98.37
2023-02-21T06:01:52.542Z,98.58
2023-02-21T06:02:52.507Z,98.68
2023-02-21T06:03:52.559Z,98.79
2023-02-21T06:04:52.515Z,98.99
2023-02-21T06:05:52.515Z,99.09
2023-02-21T06:06:52.491Z,99.09
2023-02-21T06:07:52.481Z,99.19
2023-02-21T06:08:52.489Z,99.30
2023-02-21T06:09:52.459Z,99.40
2023-02-21T06:10:52.416Z,99.51
2023-02-21T06:11:52.452Z,99.60
2023-02-21T06:12:52.442Z,99.81
2023-02-21T06:13:52.362Z,99.91
2023-02-21T06:14:52.362Z,99.99
2023-02-21T06:15:52.377Z,99.99
2023-02-21T06:16:52.380Z,99.99
2023-02-21T06:17:52.312Z,99.99
2023-02-21T06:18:52.332Z,99.99
2023-02-21T06:19:53.268Z,99.99
2023-02-21T06:20:52.326Z,99.99
2023-02-21T06:21:52.269Z,99.99
2023-02-21T06:22:52.319Z,99.99
2023-02-21T06:23:52.256Z,99.99
2023-02-21T06:24:52.309Z,99.99
2023-02-21T06:25:52.210Z,99.99
2023-02-21T06:26:52.207Z,99.99
2023-02-21T06:27:52.189Z,99.99
2023-02-21T06:28:52.223Z,99.99
2023-02-21T06:29:52.197Z,99.99
2023-02-21T06:30:52.263Z,99.99
2023-02-21T06:31:52.245Z,99.99
2023-02-21T06:32:52.171Z,99.99
2023-02-21T06:33:52.169Z,99.99
2023-02-21T06:34:52.115Z,99.99
2023-02-21T06:35:52.109Z,99.99
2023-02-21T06:36:52.083Z,99.99
2023-02-21T06:37:52.090Z,99.99
2023-02-21T06:38:52.075Z,99.99
2023-02-21T06:39:52.160Z,99.99
2023-02-21T06:40:52.063Z,99.99
2023-02-21T06:41:52.024Z,99.99
2023-02-21T06:42:52.031Z,99.99
2023-02-21T06:43:52.017Z,99.99
2023-02-21T06:44:51.996Z,99.99
2023-02-21T06:45:52.117Z,99.99
2023-02-21T06:46:51.987Z,99.99
2023-02-21T06:47:51.923Z,99.99
2023-02-21T06:48:51.923Z,99.99
2023-02-21T06:49:51.903Z,99.99
2023-02-21T06:50:52.163Z,99.99
2023-02-21T06:51:51.911Z,99.99
2023-02-21T06:52:51.961Z,99.99
2023-02-21T06:53:51.853Z,99.99
2023-02-21T06:54:51.950Z,99.99
2023-02-21T06:55:51.845Z,99.99
2023-02-21T06:56:51.869Z,99.99
2023-02-21T06:57:51.819Z,99.99
2023-02-21T06:58:51.840Z,99.99
2023-02-21T06:59:51.820Z,99.99
2023-02-21T07:00:51.776Z,99.99
2023-02-21T07:01:51.839Z,99.99
2023-02-21T07:02:51.746Z,99.99
2023-02-21T07:03:51.745Z,99.99
2023-02-21T07:04:51.772Z,99.99
2023-02-21T07:05:51.802Z,99.99
2023-02-21T07:06:51.746Z,99.99
2023-02-21T07:07:51.690Z,99.99
2023-02-21T07:08:51.727Z,99.99
2023-02-21T07:09:51.638Z,99.99
2023-02-21T07:10:51.668Z,99.99
2023-02-21T07:11:51.650Z,99.99
2023-02-21T07:12:51.643Z,99.99
2023-02-21T07:13:51.596Z,99.99
2023-02-21T07:14:51.596Z,99.99
2023-02-21T07:15:51.619Z,99.99
2023-02-21T07:16:51.560Z,99.99
2023-02-21T07:17:51.531Z,99.99
2023-02-21T07:18:51.594Z,99.99
2023-02-21T07:19:51.527Z,99.99
2023-02-21T07:20:51.526Z,99.99
2023-02-21T07:21:51.515Z,99.99
2023-02-21T07:22:51.476Z,99.99
2023-02-21T07:23:51.475Z,99.99
2023-02-21T07:24:51.511Z,99.99
2023-02-21T07:25:51.446Z,99.99
2023-02-21T07:26:51.485Z,99.99
2023-02-21T07:27:51.411Z,99.99
2023-02-21T07:28:51.493Z,99.99
2023-02-21T07:29:51.420Z,99.99
2023-02-21T07:30:51.438Z,99.99
2023-02-21T07:31:51.559Z,99.99
2023-02-21T07:32:51.379Z,99.99
2023-02-21T07:33:51.368Z,99.99
2023-02-21T07:34:51.374Z,99.99
2023-02-21T07:35:51.331Z,99.99
2023-02-21T07:36:51.311Z,99.99
2023-02-21T07:37:51.303Z,99.99
2023-02-21T07:38:51.283Z,99.99
2023-02-21T07:39:51.310Z,99.99
2023-02-21T07:40:51.307Z,99.99
2023-02-21T07:41:51.260Z,99.99
2023-02-21T07:42:51.249Z,99.99
2023-02-21T07:43:51.253Z,99.99
2023-02-21T07:44:51.238Z,99.99
2023-02-21T07:45:51.227Z,99.99
2023-02-21T07:46:51.266Z,99.99
2023-02-21T07:47:51.180Z,99.99
2023-02-21T07:48:51.222Z,99.99
2023-02-21T07:49:51.157Z,99.99
2023-02-21T07:50:51.155Z,99.99
2023-02-21T07:51:51.138Z,99.99
2023-02-21T07:52:51.117Z,99.99
2023-02-21T07:53:51.110Z,99.99
2023-02-21T07:54:51.110Z,99.99
2023-02-21T07:55:51.125Z,99.99
2023-02-21T07:56:51.054Z,99.99
2023-02-21T07:57:51.323Z,99.99
2023-02-21T07:58:51.053Z,99.99
2023-02-21T07:59:50.999Z,99.99
2023-02-21T08:00:51.041Z,99.99
2023-02-21T08:01:51.108Z,99.99
2023-02-21T08:02:50.959Z,99.99
2023-02-21T08:03:50.958Z,99.99
2023-02-21T08:04:51.022Z,99.99
2023-02-21T08:05:50.918Z,99.99
2023-02-21T08:06:50.984Z,99.99
2023-02-21T08:07:50.911Z,99.99
2023-02-21T08:08:50.877Z,99.99
2023-02-21T08:09:50.895Z,99.99
2023-02-21T08:10:50.893Z,99.99
2023-02-21T08:11:50.862Z,99.99
2023-02-21T08:12:50.835Z,99.99
2023-02-21T08:13:50.827Z,99.99
2023-02-21T08:14:50.849Z,99.99
2023-02-21T08:15:50.913Z,99.99
2023-02-21T08:16:50.808Z,99.99
2023-02-21T08:17:50.791Z,99.99
2023-02-21T08:18:50.764Z,99.99
2023-02-21T08:19:50.749Z,99.99
2023-02-21T08:20:50.752Z,99.99
2023-02-21T08:21:50.710Z,99.99
2023-02-21T08:22:51.643Z,99.99
2023-02-21T08:23:50.698Z,99.99
2023-02-21T08:24:50.711Z,99.99
2023-02-21T08:25:50.688Z,99.99
2023-02-21T08:26:50.640Z,99.99
2023-02-21T08:27:50.637Z,99.99
2023-02-21T08:28:50.620Z,99.99
2023-02-21T08:29:50.613Z,99.99
2023-02-21T08:30:50.672Z,99.99
2023-02-21T08:31:50.647Z,99.99
2023-02-21T08:32:50.659Z,99.99
2023-02-21T08:33:50.536Z,99.99
2023-02-21T08:34:50.580Z,99.99
2023-02-21T08:35:50.530Z,99.99
2023-02-21T08:36:50.561Z,99.99
2023-02-21T08:37:50.500Z,99.99
2023-02-21T08:38:50.524Z,99.99
2023-02-21T08:39:50.467Z,99.99
2023-02-21T08:40:50.509Z,99.99
2023-02-21T08:41:50.465Z,99.99
2023-02-21T08:42:50.437Z,99.99
2023-02-21T08:43:50.437Z,99.99
2023-02-21T08:44:51.157Z,99.99
2023-02-21T08:45:50.415Z,99.99
2023-02-21T08:46:50.590Z,99.99
2023-02-21T08:47:50.381Z,99.99
2023-02-21T08:48:54.078Z,99.99
2023-02-21T08:49:50.362Z,99.99
2023-02-21T08:50:50.379Z,99.99
2023-02-21T08:51:50.316Z,99.99
2023-02-21T08:52:50.334Z,99.99
2023-02-21T08:53:50.287Z,99.99
2023-02-21T08:54:50.315Z,99.99
2023-02-21T08:55:50.295Z,99.99
2023-02-21T08:56:50.256Z,99.99
2023-02-21T08:57:50.233Z,99.99
2023-02-21T08:58:50.263Z,99.99
2023-02-21T08:59:50.210Z,99.99
2023-02-21T09:00:50.296Z,99.99
2023-02-21T09:01:50.210Z,99.99
2023-02-21T09:02:50.176Z,99.99
2023-02-21T09:03:50.164Z,99.99
2023-02-21T09:04:50.194Z,99.99
2023-02-21T09:05:50.146Z,99.99
2023-02-21T09:06:50.128Z,99.99
2023-02-21T09:07:50.165Z,99.99
2023-02-21T09:08:50.109Z,99.99
2023-02-21T09:09:50.111Z,99.99
2023-02-21T09:10:50.144Z,99.99
2023-02-21T09:11:50.090Z,99.99
2023-02-21T09:12:50.071Z,99.99
2023-02-21T09:13:50.039Z,99.99
2023-02-21T09:14:50.058Z,99.99
2023-02-21T09:15:50.012Z,99.99
2023-02-21T09:16:50.029Z,99.99
2023-02-21T09:17:49.997Z,99.99
2023-02-21T09:18:50.763Z,99.99
2023-02-21T09:19:49.982Z,99.99
2023-02-21T09:20:49.956Z,99.99
2023-02-21T09:21:49.944Z,99.99
2023-02-21T09:22:49.922Z,99.99
2023-02-21T09:23:49.921Z,99.99
2023-02-21T09:24:49.894Z,99.99
2023-02-21T09:25:49.917Z,99.99
2023-02-21T09:26:49.875Z,99.99
2023-02-21T09:27:50.818Z,99.99
2023-02-21T09:28:49.893Z,99.99
2023-02-21T09:29:49.848Z,99.99
2023-02-21T09:30:49.889Z,99.99
2023-02-21T09:31:49.950Z,99.99
2023-02-21T09:32:49.866Z,99.99
2023-02-21T09:33:49.793Z,99.99
2023-02-21T09:34:49.810Z,99.99
2023-02-21T09:35:49.772Z,99.99
2023-02-21T09:36:49.762Z,99.99
2023-02-21T09:37:49.712Z,99.99
2023-02-21T09:38:49.730Z,99.99
2023-02-21T09:39:49.723Z,99.99
2023-02-21T09:40:49.743Z,99.99
2023-02-21T09:41:49.670Z,99.99
2023-02-21T09:42:49.671Z,99.99
2023-02-21T09:43:49.648Z,99.99
2023-02-21T09:44:49.651Z,99.99
2023-02-21T09:45:49.779Z,99.99
2023-02-21T09:46:49.663Z,99.99
2023-02-21T09:47:49.618Z,99.99
2023-02-21T09:48:49.591Z,99.99
2023-02-21T09:49:49.591Z,99.99
2023-02-21T09:50:49.825Z,99.99
2023-02-21T09:51:49.555Z,99.99
2023-02-21T09:52:49.555Z,99.99
2023-02-21T09:53:49.564Z,99.99
2023-02-21T09:54:49.532Z,99.99
2023-02-21T09:55:49.496Z,99.99
2023-02-21T09:56:49.584Z,99.99
2023-02-21T09:57:49.482Z,99.99
2023-02-21T09:58:49.481Z,99.99
2023-02-21T09:59:49.458Z,99.99
2023-02-21T10:00:49.560Z,99.99
2023-02-21T10:01:49.409Z,99.99
2023-02-21T10:02:49.397Z,99.99
2023-02-21T10:03:49.428Z,99.99
2023-02-21T10:04:49.422Z,99.99
2023-02-21T10:05:49.368Z,99.99
2023-02-21T10:06:49.383Z,99.99
2023-02-21T10:07:49.382Z,99.99
2023-02-21T10:08:49.332Z,99.99
2023-02-21T10:09:49.322Z,99.99
2023-02-21T10:10:49.332Z,99.99
2023-02-21T10:11:49.317Z,99.99
2023-02-21T10:12:49.280Z,99.99
2023-02-21T10:13:49.270Z,99.99
2023-02-21T10:14:49.269Z,99.99
2023-02-21T10:15:50.021Z,99.99
2023-02-21T10:16:49.323Z,99.99
2023-02-21T10:17:49.247Z,99.99
2023-02-21T10:18:49.195Z,99.99
2023-02-21T10:19:49.192Z,99.99
2023-02-21T10:20:49.195Z,99.99
2023-02-21T10:21:49.160Z,99.99
2023-02-21T10:22:49.173Z,99.99
2023-02-21T10:23:49.173Z,99.99
2023-02-21T10:24:49.122Z,99.99
2023-02-21T10:25:49.098Z,99.99
2023-02-21T10:26:49.112Z,99.99
2023-02-21T10:27:49.079Z,99.99
2023-02-21T10:28:49.058Z,99.99
2023-02-21T10:29:49.073Z,99.99
2023-02-21T10:30:51.190Z,99.99
2023-02-21T10:31:49.025Z,99.99
2023-02-21T10:32:49.736Z,99.99
2023-02-21T10:33:49.034Z,99.99
2023-02-21T10:34:48.995Z,99.99
2023-02-21T10:35:48.995Z,99.99
2023-02-21T10:36:48.944Z,99.99
2023-02-21T10:37:49.006Z,99.99
2023-02-21T10:38:48.926Z,99.99
2023-02-21T10:39:48.941Z,99.99
2023-02-21T10:40:48.913Z,99.99
2023-02-21T10:41:48.914Z,99.99
2023-02-21T10:42:48.894Z,99.99
2023-02-21T10:43:48.891Z,99.99
2023-02-21T10:44:48.908Z,99.99
2023-02-21T10:45:49.694Z,99.99
2023-02-21T10:46:48.805Z,99.99
2023-02-21T10:47:48.813Z,99.99
2023-02-21T10:48:48.823Z,99.99
2023-02-21T10:49:48.813Z,99.99
2023-02-21T10:50:48.794Z,99.99
2023-02-21T10:51:48.769Z,99.99
2023-02-21T10:52:48.865Z,99.99
2023-02-21T10:53:48.787Z,99.99
2023-02-21T10:54:48.731Z,99.99
2023-02-21T10:55:48.790Z,99.99
2023-02-21T10:56:48.702Z,99.99
2023-02-21T10:57:48.692Z,99.99
2023-02-21T10:58:48.681Z,99.99
2023-02-21T10:59:50.664Z,99.99
2023-02-21T11:00:48.775Z,99.99
2023-02-21T11:01:48.653Z,99.99
2023-02-21T11:02:48.617Z,99.99
2023-02-21T11:03:48.646Z,99.99
2023-02-21T11:04:48.597Z,99.99
2023-02-21T11:05:48.621Z,99.99
2023-02-21T11:06:49.350Z,99.93
2023-02-21T11:07:48.578Z,99.93
2023-02-21T11:08:48.535Z,99.72
2023-02-21T11:09:48.543Z,99.72
2023-02-21T11:10:48.515Z,99.62
2023-02-21T11:11:48.508Z,99.62
2023-02-21T11:12:48.519Z,99.51
2023-02-21T11:13:48.506Z,99.47
2023-02-21T11:14:48.488Z,99.37
2023-02-21T11:15:48.546Z,99.37
2023-02-21T11:16:48.422Z,99.26
2023-02-21T11:17:48.462Z,99.16
2023-02-21T11:18:49.219Z,99.05
2023-02-21T11:19:48.439Z,99.05
2023-02-21T11:20:48.397Z,98.96
2023-02-21T11:21:48.383Z,98.75
2023-02-21T11:22:48.388Z,98.54
2023-02-21T11:23:48.670Z,98.49
2023-02-21T11:24:48.364Z,98.59
2023-02-21T11:25:48.358Z,98.54
2023-02-21T11:26:48.299Z,98.54
2023-02-21T11:27:48.346Z,98.65
2023-02-21T11:28:48.351Z,98.54
2023-02-21T11:29:48.269Z,98.54
2023-02-21T11:30:48.381Z,98.54
2023-02-21T11:31:48.396Z,98.54
2023-02-21T11:32:48.243Z,98.44
2023-02-21T11:33:48.209Z,98.33
2023-02-21T11:34:48.217Z,98.13
2023-02-21T11:35:48.198Z,98.13
2023-02-21T11:36:48.207Z,98.03
2023-02-21T11:37:48.197Z,98.03
2023-02-21T11:38:48.149Z,98.03
2023-02-21T11:39:48.171Z,97.92
2023-02-21T11:40:48.163Z,97.92
2023-02-21T11:41:48.129Z,97.92
2023-02-21T11:42:48.099Z,97.88
2023-02-21T11:43:48.231Z,97.88
2023-02-21T11:44:48.081Z,97.78
2023-02-21T11:45:48.090Z,97.67
2023-02-21T11:46:48.088Z,97.47
2023-02-21T11:47:48.073Z,97.47
2023-02-21T11:48:48.049Z,97.47
2023-02-21T11:49:50.516Z,97.37
2023-02-21T11:50:47.989Z,97.47
2023-02-21T11:51:48.021Z,97.37
2023-02-21T11:52:47.965Z,97.37
2023-02-21T11:53:47.996Z,97.37
2023-02-21T11:54:48.947Z,97.27
2023-02-21T11:55:47.976Z,97.27
2023-02-21T11:56:47.920Z,97.27
2023-02-21T11:57:47.962Z,96.95
2023-02-21T11:58:47.956Z,96.95
2023-02-21T11:59:47.889Z,97.06
2023-02-21T12:00:47.891Z,97.06
2023-02-21T12:01:47.856Z,97.27
2023-02-21T12:02:47.902Z,97.27
2023-02-21T12:03:47.836Z,97.37
2023-02-21T12:04:47.834Z,97.47
2023-02-21T12:05:47.850Z,97.57
2023-02-21T12:06:50.138Z,97.47
2023-02-21T12:07:47.813Z,97.27
2023-02-21T12:08:47.818Z,97.06
2023-02-21T12:09:47.781Z,97.06
2023-02-21T12:10:47.760Z,96.95
2023-02-21T12:11:47.766Z,96.95
2023-02-21T12:12:47.724Z,96.95
2023-02-21T12:13:47.747Z,96.95
2023-02-21T12:14:47.688Z,96.95
2023-02-21T12:15:47.690Z,96.95
2023-02-21T12:16:47.659Z,97.02
2023-02-21T12:17:47.684Z,96.91
2023-02-21T12:18:47.679Z,96.81
2023-02-21T12:19:47.642Z,96.70
2023-02-21T12:20:47.630Z,96.65
2023-02-21T12:21:47.633Z,96.55
2023-02-21T12:22:47.584Z,96.55
2023-02-21T12:23:47.584Z,96.55
2023-02-21T12:24:47.683Z,96.60
2023-02-21T12:25:47.548Z,96.60
2023-02-21T12:26:47.564Z,96.60
2023-02-21T12:27:47.521Z,96.40
2023-02-21T12:28:47.546Z,96.40
2023-02-21T12:29:47.535Z,96.40
2023-02-21T12:30:47.514Z,96.40
2023-02-21T12:31:47.736Z,96.40
2023-02-21T12:32:47.622Z,96.30
2023-02-21T12:33:47.474Z,96.19
2023-02-21T12:34:47.477Z,96.19
2023-02-21T12:35:47.504Z,96.19
2023-02-21T12:36:47.464Z,96.19
2023-02-21T12:37:47.466Z,96.09
2023-02-21T12:38:47.371Z,96.09
2023-02-21T12:39:47.417Z,96.09
2023-02-21T12:40:47.399Z,96.09
2023-02-21T12:41:47.455Z,96.19
2023-02-21T12:42:47.313Z,96.19
2023-02-21T12:43:47.325Z,96.19
2023-02-21T12:44:47.321Z,96.09
2023-02-21T12:45:47.521Z,96.09
2023-02-21T12:46:47.399Z,96.09
2023-02-21T12:47:47.318Z,95.98
2023-02-21T12:48:47.277Z,96.09
2023-02-21T12:49:47.269Z,95.98
2023-02-21T12:50:47.244Z,96.09
2023-02-21T12:51:47.291Z,96.19
2023-02-21T12:52:47.228Z,96.30